createdAt,value
2022-09-27T00:00:41.397Z,2.40
2022-09-27T00:03:15.924Z,1.70
2022-09-27T00:05:46.998Z,2.15
2022-09-27T00:08:18.886Z,1.63
2022-09-27T00:10:49.673Z,1.50
2022-09-27T00:13:20.503Z,1.63
2022-09-27T00:15:51.670Z,2.10
2022-09-27T00:18:25.582Z,1.25
2022-09-27T00:20:56.887Z,1.63
2022-09-27T00:23:27.780Z,1.30
2022-09-27T00:25:59.478Z,1.73
2022-09-27T00:28:31.233Z,1.67
2022-09-27T00:31:02.746Z,1.92
2022-09-27T00:33:36.248Z,1.85
2022-09-27T00:36:08.810Z,1.40
2022-09-27T00:38:39.906Z,1.13
2022-09-27T00:41:11.082Z,1.60
2022-09-27T00:43:51.095Z,1.88
2022-09-27T00:46:31.234Z,1.85
2022-09-27T00:49:15.461Z,1.15
2022-09-27T00:51:49.667Z,1.58
2022-09-27T00:54:22.437Z,1.33
2022-09-27T00:56:53.883Z,1.85
2022-09-27T00:59:30.367Z,2.13
2022-09-27T01:02:01.317Z,1.48
2022-09-27T01:04:36.674Z,1.52
2022-09-27T01:07:07.805Z,1.60
2022-09-27T01:09:38.917Z,1.50
2022-09-27T01:12:21.188Z,1.65
2022-09-27T01:15:08.633Z,1.33
2022-09-27T01:17:51.717Z,1.35
2022-09-27T01:20:47.134Z,1.00
2022-09-27T01:23:45.733Z,1.40
2022-09-27T01:26:22.629Z,1.13
2022-09-27T01:29:04.288Z,1.25
2022-09-27T01:31:46.118Z,1.15
2022-09-27T01:34:25.660Z,1.33
2022-09-27T01:37:05.601Z,1.40
2022-09-27T01:39:46.250Z,1.17
2022-09-27T01:42:51.271Z,1.13
2022-09-27T01:45:29.169Z,0.85
2022-09-27T01:48:25.576Z,1.00
2022-09-27T01:51:04.696Z,1.50
2022-09-27T01:53:39.679Z,1.10
2022-09-27T01:56:30.356Z,1.08
2022-09-27T01:59:13.045Z,0.98
2022-09-27T02:01:54.467Z,1.25
2022-09-27T02:04:36.963Z,1.17
2022-09-27T02:07:18.845Z,0.82
2022-09-27T02:09:58.828Z,0.98
2022-09-27T02:12:44.264Z,1.45
2022-09-27T02:15:18.697Z,1.48
2022-09-27T02:18:07.511Z,1.47
2022-09-27T02:20:45.052Z,1.33
2022-09-27T02:26:01.128Z,1.27
2022-09-27T02:28:38.417Z,0.82
2022-09-27T02:31:11.329Z,1.60
2022-09-27T02:33:47.850Z,1.77
2022-09-27T02:36:21.957Z,2.28
2022-09-27T02:38:53.210Z,1.27
2022-09-27T02:41:26.530Z,0.90
2022-09-27T02:43:59.762Z,0.75
2022-09-27T02:46:53.715Z,1.38
2022-09-27T02:49:38.362Z,1.20
2022-09-27T02:52:33.632Z,0.80
2022-09-27T02:55:14.590Z,0.73
2022-09-27T02:58:17.355Z,1.05
2022-09-27T03:01:15.299Z,0.88
2022-09-27T03:04:10.481Z,1.15
2022-09-27T03:06:45.173Z,1.10
2022-09-27T03:09:22.494Z,1.73
2022-09-27T03:11:53.815Z,1.35
2022-09-27T03:14:24.784Z,1.45
2022-09-27T03:17:04.784Z,1.40
2022-09-27T03:19:56.139Z,1.10
2022-09-27T03:22:50.104Z,1.50
2022-09-27T03:25:23.941Z,1.00
2022-09-27T03:27:54.774Z,1.50
2022-09-27T03:30:25.734Z,1.38
2022-09-27T03:32:56.694Z,1.50
2022-09-27T03:36:04.004Z,1.40
2022-09-27T03:38:34.841Z,1.73
2022-09-27T03:41:09.153Z,1.35
2022-09-27T03:43:40.164Z,1.48
2022-09-27T03:46:11.135Z,1.83
2022-09-27T03:48:42.866Z,1.80
2022-09-27T03:51:14.598Z,1.92
2022-09-27T03:53:46.098Z,1.30
2022-09-27T03:56:20.385Z,1.50
2022-09-27T03:58:51.837Z,1.25
2022-09-27T04:01:23.527Z,1.58
2022-09-27T04:03:58.846Z,2.35
2022-09-27T04:06:35.417Z,1.30
2022-09-27T04:09:08.527Z,1.63
2022-09-27T04:12:02.556Z,1.60
2022-09-27T04:14:34.285Z,1.38
2022-09-27T04:17:26.070Z,1.85
2022-09-27T04:20:20.605Z,1.30
2022-09-27T04:22:53.129Z,1.60
2022-09-27T04:25:25.300Z,1.25
2022-09-27T04:28:03.370Z,1.10
2022-09-27T04:30:34.685Z,1.65
2022-09-27T04:33:17.680Z,1.83
2022-09-27T04:36:28.215Z,1.33
2022-09-27T04:39:07.938Z,0.90
2022-09-27T04:41:41.675Z,1.65
2022-09-27T04:44:15.197Z,1.50
2022-09-27T04:46:49.569Z,1.52
2022-09-27T04:49:20.718Z,0.80
2022-09-27T04:51:51.735Z,1.60
2022-09-27T04:54:22.885Z,1.60
2022-09-27T04:57:13.070Z,2.42
2022-09-27T04:59:47.499Z,2.13
2022-09-27T05:02:20.112Z,1.42
2022-09-27T05:05:13.507Z,1.05
2022-09-27T05:07:46.720Z,1.50
2022-09-27T05:10:29.589Z,1.20
2022-09-27T05:13:00.401Z,1.17
2022-09-27T05:15:34.651Z,1.70
2022-09-27T05:18:24.733Z,1.15
2022-09-27T05:21:14.971Z,1.40
2022-09-27T05:23:49.694Z,1.50
2022-09-27T05:26:21.641Z,1.38
2022-09-27T05:28:52.999Z,1.30
2022-09-27T05:31:26.951Z,2.00
2022-09-27T05:33:58.734Z,1.73
2022-09-27T05:36:41.842Z,1.67
2022-09-27T05:39:13.342Z,2.00
2022-09-27T05:41:44.479Z,1.17
2022-09-27T05:44:16.454Z,1.52
2022-09-27T05:47:00.373Z,1.80
2022-09-27T05:49:31.883Z,1.77
2022-09-27T05:52:03.983Z,1.50
2022-09-27T05:54:35.298Z,1.40
2022-09-27T05:57:08.614Z,1.60
2022-09-27T05:59:50.829Z,3.25
2022-09-27T06:02:27.340Z,1.98
2022-09-27T06:05:17.445Z,1.65
2022-09-27T06:08:21.882Z,1.30
2022-09-27T06:11:05.278Z,1.48
2022-09-27T06:13:38.255Z,2.30
2022-09-27T06:16:15.365Z,1.42
2022-09-27T06:18:52.853Z,3.15
2022-09-27T06:21:24.512Z,1.73
2022-09-27T06:24:00.223Z,1.50
2022-09-27T06:26:37.821Z,1.90
2022-09-27T06:29:35.912Z,1.27
2022-09-27T06:32:10.521Z,1.35
2022-09-27T06:35:16.629Z,2.45
2022-09-27T06:37:47.691Z,1.35
2022-09-27T06:40:18.818Z,1.40
2022-09-27T06:42:59.539Z,1.30
2022-09-27T06:45:51.429Z,1.10
2022-09-27T06:48:38.019Z,1.33
2022-09-27T06:51:20.979Z,1.40
2022-09-27T06:53:55.023Z,1.88
2022-09-27T06:56:28.069Z,1.60
2022-09-27T06:59:12.064Z,1.15
2022-09-27T07:01:46.791Z,1.80
2022-09-27T07:04:37.053Z,2.25
2022-09-27T07:07:17.191Z,2.25
2022-09-27T07:09:50.672Z,1.80
2022-09-27T07:12:24.882Z,1.50
2022-09-27T07:14:58.289Z,1.80
2022-09-27T07:17:30.235Z,1.50
2022-09-27T07:20:02.393Z,1.40
2022-09-27T07:22:42.637Z,2.40
2022-09-27T07:25:15.502Z,3.40
2022-09-27T07:27:46.840Z,2.08
2022-09-27T07:30:19.076Z,1.92
2022-09-27T07:32:51.811Z,1.75
2022-09-27T07:35:24.353Z,1.75
2022-09-27T07:37:59.984Z,1.95
2022-09-27T07:40:31.747Z,1.60
2022-09-27T07:43:03.055Z,1.50
2022-09-27T07:45:35.315Z,2.25
2022-09-27T07:48:46.902Z,1.65
2022-09-27T07:51:24.640Z,1.83
2022-09-27T07:54:08.805Z,1.88
2022-09-27T07:56:55.962Z,1.83
2022-09-27T07:59:27.768Z,2.13
2022-09-27T08:01:59.642Z,1.80
2022-09-27T08:04:30.631Z,1.63
2022-09-27T08:07:01.948Z,2.03
2022-09-27T08:09:36.171Z,3.15
2022-09-27T08:12:08.352Z,1.52
2022-09-27T08:14:45.112Z,2.10
2022-09-27T08:17:20.557Z,1.50
2022-09-27T08:20:10.742Z,2.05
2022-09-27T08:22:50.494Z,1.58
2022-09-27T08:25:34.706Z,1.65
2022-09-27T08:28:09.092Z,2.47
2022-09-27T08:30:51.062Z,2.50
2022-09-27T08:33:31.249Z,1.75
2022-09-27T08:36:03.825Z,1.85
2022-09-27T08:38:34.973Z,2.10
2022-09-27T08:41:15.091Z,1.40
2022-09-27T08:43:53.537Z,3.00
2022-09-27T08:46:33.991Z,1.63
2022-09-27T08:49:10.129Z,1.85
2022-09-27T08:51:42.851Z,3.58
2022-09-27T08:54:20.876Z,1.83
2022-09-27T08:56:57.442Z,1.63
2022-09-27T08:59:33.637Z,2.97
2022-09-27T09:02:05.218Z,2.38
2022-09-27T09:04:43.972Z,2.08
2022-09-27T09:07:28.187Z,2.00
2022-09-27T09:10:07.077Z,2.55
2022-09-27T09:12:53.997Z,2.90
2022-09-27T09:15:55.115Z,3.30
2022-09-27T09:18:52.381Z,3.30
2022-09-27T09:21:53.456Z,2.67
2022-09-27T09:24:38.834Z,2.58
2022-09-27T09:27:19.557Z,2.70
2022-09-27T09:30:11.502Z,2.13
2022-09-27T09:33:00.482Z,2.47
2022-09-27T09:35:38.207Z,2.60
2022-09-27T09:38:14.876Z,2.50
2022-09-27T09:40:51.812Z,3.55
2022-09-27T09:43:28.697Z,1.70
2022-09-27T09:46:10.853Z,2.55
2022-09-27T09:48:47.401Z,2.30
2022-09-27T09:51:23.781Z,3.05
2022-09-27T09:53:59.925Z,2.28
2022-09-27T09:56:38.907Z,2.53
2022-09-27T09:59:17.702Z,2.45
2022-09-27T10:01:56.149Z,2.60
2022-09-27T10:04:30.232Z,1.95
2022-09-27T10:07:04.370Z,3.53
2022-09-27T10:09:39.818Z,3.47
2022-09-27T10:12:30.919Z,3.30
2022-09-27T10:15:06.365Z,3.22
2022-09-27T10:17:45.470Z,2.60
2022-09-27T10:20:30.216Z,3.17
2022-09-27T10:23:09.538Z,2.75
2022-09-27T10:25:59.183Z,3.05
2022-09-27T10:28:43.666Z,3.75
2022-09-27T10:31:18.423Z,2.58
2022-09-27T10:34:23.476Z,3.00
2022-09-27T10:39:42.496Z,3.92
2022-09-27T10:42:24.859Z,2.97
2022-09-27T10:44:56.152Z,3.42
2022-09-27T10:47:50.317Z,2.88
2022-09-27T10:50:49.569Z,3.17
2022-09-27T10:53:38.511Z,2.63
2022-09-27T10:56:25.908Z,2.83
2022-09-27T10:58:56.936Z,5.43
2022-09-27T11:01:29.934Z,3.80
2022-09-27T11:04:24.865Z,2.63
2022-09-27T11:07:11.069Z,3.22
2022-09-27T11:09:51.655Z,2.90
2022-09-27T11:12:23.547Z,2.90
2022-09-27T11:15:03.325Z,3.40
2022-09-27T11:17:43.653Z,3.95
2022-09-27T11:20:24.889Z,3.88
2022-09-27T11:23:31.614Z,2.88
2022-09-27T11:26:29.901Z,3.60
2022-09-27T11:29:13.748Z,2.90
2022-09-27T11:32:31.873Z,2.80
2022-09-27T11:35:26.566Z,3.58
2022-09-27T11:38:21.032Z,3.33
2022-09-27T11:41:23.635Z,3.22
2022-09-27T11:44:23.100Z,3.20
2022-09-27T11:47:03.816Z,4.85
2022-09-27T11:50:04.945Z,3.20
2022-09-27T11:52:51.241Z,3.20
2022-09-27T11:55:42.765Z,3.35
2022-09-27T11:58:24.321Z,2.85
2022-09-27T12:01:09.904Z,2.97
2022-09-27T12:04:16.512Z,3.30
2022-09-27T12:06:56.996Z,3.85
2022-09-27T12:09:33.768Z,4.07
2022-09-27T12:12:14.920Z,3.58
2022-09-27T12:14:49.351Z,2.63
2022-09-27T12:17:23.789Z,3.15
2022-09-27T12:19:59.405Z,2.67
2022-09-27T12:22:58.975Z,3.17
2022-09-27T12:26:03.722Z,3.50
2022-09-27T12:28:46.719Z,3.13
2022-09-27T12:31:30.152Z,3.53
2022-09-27T12:34:15.147Z,2.30
2022-09-27T12:36:56.499Z,3.72
2022-09-27T12:39:31.827Z,4.20
2022-09-27T12:42:23.387Z,3.20
2022-09-27T12:44:58.431Z,3.30
2022-09-27T12:47:53.347Z,2.88
2022-09-27T12:50:33.157Z,3.00
2022-09-27T12:53:08.924Z,3.95
2022-09-27T12:56:11.987Z,3.40
2022-09-27T12:59:02.681Z,2.38
2022-09-27T13:01:51.757Z,3.17
2022-09-27T13:04:38.201Z,3.00
2022-09-27T13:07:28.635Z,4.40
2022-09-27T13:10:25.304Z,2.28
2022-09-27T13:15:32.978Z,3.35
2022-09-27T13:18:10.055Z,3.47
2022-09-27T13:20:49.575Z,2.55
2022-09-27T13:23:56.055Z,3.33
2022-09-27T13:26:48.724Z,2.20
2022-09-27T13:29:40.927Z,2.70
2022-09-27T13:32:23.982Z,2.85
2022-09-27T13:35:24.661Z,3.53
2022-09-27T13:38:03.112Z,3.22
2022-09-27T13:40:53.985Z,3.22
2022-09-27T13:44:05.405Z,2.72
2022-09-27T13:46:53.384Z,2.78
2022-09-27T13:49:32.397Z,2.47
2022-09-27T13:52:25.749Z,2.97
2022-09-27T13:55:43.586Z,2.20
2022-09-27T13:58:37.864Z,2.13
2022-09-27T14:01:24.834Z,2.67
2022-09-27T14:03:59.352Z,2.05
2022-09-27T14:06:35.475Z,2.45
2022-09-27T14:09:11.454Z,2.60
2022-09-27T14:11:45.767Z,2.63
2022-09-27T14:14:21.154Z,1.75
2022-09-27T14:16:57.639Z,1.85
2022-09-27T14:19:29.995Z,2.35
2022-09-27T14:22:01.544Z,1.65
2022-09-27T14:24:49.063Z,1.60
2022-09-27T14:27:29.753Z,1.75
2022-09-27T14:30:29.204Z,1.90
2022-09-27T14:33:32.188Z,2.58
2022-09-27T14:36:24.454Z,3.35
2022-09-27T14:38:58.260Z,3.85
2022-09-27T14:41:42.491Z,2.03
2022-09-27T14:44:20.979Z,2.53
2022-09-27T14:47:11.466Z,2.83
2022-09-27T14:49:50.609Z,3.33
2022-09-27T14:52:28.080Z,2.47
2022-09-27T14:55:04.148Z,2.60
2022-09-27T14:57:40.295Z,2.63
2022-09-27T15:00:21.225Z,2.90
2022-09-27T15:02:54.498Z,2.95
2022-09-27T15:05:27.697Z,2.70
2022-09-27T15:08:01.454Z,2.33
2022-09-27T15:10:35.357Z,2.70
2022-09-27T15:13:09.548Z,2.83
2022-09-27T15:15:41.553Z,2.22
2022-09-27T15:18:33.804Z,2.45
2022-09-27T15:21:06.141Z,1.50
2022-09-27T15:23:40.675Z,2.00
2022-09-27T15:26:16.984Z,1.23
2022-09-27T15:28:56.224Z,1.70
2022-09-27T15:31:34.081Z,1.70
2022-09-27T15:34:06.943Z,1.40
2022-09-27T15:36:56.174Z,1.67
2022-09-27T15:39:32.750Z,1.30
2022-09-27T15:42:13.635Z,1.35
2022-09-27T15:44:52.498Z,1.98
2022-09-27T15:47:43.049Z,1.70
2022-09-27T15:50:39.718Z,2.05
2022-09-27T15:53:14.740Z,2.08
2022-09-27T15:55:48.427Z,1.80
2022-09-27T15:58:24.682Z,1.77
2022-09-27T16:01:00.251Z,1.77
2022-09-27T16:03:32.128Z,1.92
2022-09-27T16:06:04.963Z,1.75
2022-09-27T16:08:38.513Z,1.77
2022-09-27T16:11:09.743Z,2.00
2022-09-27T16:13:41.540Z,1.80
2022-09-27T16:16:20.459Z,2.08
2022-09-27T16:18:52.210Z,2.15
2022-09-27T16:21:23.391Z,2.13
2022-09-27T16:23:55.495Z,1.63
2022-09-27T16:26:26.395Z,1.40
2022-09-27T16:28:57.863Z,1.55
2022-09-27T16:31:32.232Z,2.13
2022-09-27T16:34:03.632Z,2.42
2022-09-27T16:36:36.004Z,1.48
2022-09-27T16:39:08.416Z,1.40
2022-09-27T16:41:43.876Z,1.58
2022-09-27T16:44:17.831Z,1.40
2022-09-27T16:46:51.943Z,1.63
2022-09-27T16:49:35.377Z,1.30
2022-09-27T16:52:07.183Z,0.90
2022-09-27T16:54:38.407Z,0.90
2022-09-27T16:57:09.595Z,1.00
2022-09-27T16:59:41.575Z,1.27
2022-09-27T17:02:15.899Z,1.00
2022-09-27T17:04:47.295Z,1.25
2022-09-27T17:07:18.390Z,0.70
2022-09-27T17:09:50.025Z,0.85
2022-09-27T17:12:20.979Z,1.00
2022-09-27T17:14:52.110Z,0.70
2022-09-27T17:17:26.159Z,0.88
2022-09-27T17:19:57.162Z,0.70
2022-09-27T17:22:28.210Z,1.10
2022-09-27T17:24:59.490Z,0.80
2022-09-27T17:27:31.880Z,0.90
2022-09-27T17:30:03.443Z,0.98
2022-09-27T17:32:38.760Z,1.05
2022-09-27T17:35:11.438Z,0.93
2022-09-27T17:37:42.795Z,0.90
2022-09-27T17:40:14.833Z,0.70
2022-09-27T17:42:46.832Z,0.65
2022-09-27T17:45:17.819Z,0.60
2022-09-27T17:48:03.964Z,1.02
2022-09-27T17:50:35.883Z,0.90
2022-09-27T17:53:07.062Z,0.73
2022-09-27T17:55:38.151Z,0.85
2022-09-27T17:58:09.707Z,0.85
2022-09-27T18:00:40.871Z,1.02
2022-09-27T18:03:14.588Z,0.82
2022-09-27T18:05:46.118Z,0.90
2022-09-27T18:08:17.349Z,0.98
2022-09-27T18:10:48.560Z,1.17
2022-09-27T18:13:19.637Z,1.38
2022-09-27T18:16:00.446Z,1.02
2022-09-27T18:18:36.827Z,0.70
2022-09-27T18:21:11.642Z,0.60
2022-09-27T18:23:43.286Z,0.60
2022-09-27T18:26:14.676Z,0.80
2022-09-27T18:28:46.371Z,0.88
2022-09-27T18:31:19.769Z,0.70
2022-09-27T18:33:54.279Z,0.80
2022-09-27T18:36:27.742Z,0.77
2022-09-27T18:39:00.077Z,1.45
2022-09-27T18:41:33.222Z,0.90
2022-09-27T18:44:06.507Z,0.90
2022-09-27T18:46:39.238Z,0.60
2022-09-27T18:49:15.492Z,0.77
2022-09-27T18:51:49.598Z,0.70
2022-09-27T18:54:23.070Z,0.80
2022-09-27T18:56:55.682Z,0.65
2022-09-27T18:59:26.838Z,0.85
2022-09-27T19:01:58.301Z,0.93
2022-09-27T19:04:32.461Z,0.60
2022-09-27T19:07:03.759Z,0.68
2022-09-27T19:09:35.161Z,1.00
2022-09-27T19:12:06.406Z,0.65
2022-09-27T19:14:37.643Z,0.77
2022-09-27T19:17:09.056Z,0.82
2022-09-27T19:19:43.260Z,0.80
2022-09-27T19:22:14.384Z,0.70
2022-09-27T19:24:45.727Z,0.93
2022-09-27T19:27:17.822Z,0.80
2022-09-27T19:29:49.702Z,0.50
2022-09-27T19:32:20.884Z,0.60
2022-09-27T19:34:54.807Z,0.60
2022-09-27T19:37:25.721Z,0.70
2022-09-27T19:39:56.722Z,0.60
2022-09-27T19:42:28.146Z,0.70
2022-09-27T19:44:59.239Z,0.60
2022-09-27T19:47:30.555Z,0.75
2022-09-27T19:50:04.341Z,0.50
2022-09-27T19:52:36.969Z,0.50
2022-09-27T19:55:10.101Z,0.57
2022-09-27T19:57:41.392Z,0.95
2022-09-27T20:00:13.446Z,0.73
2022-09-27T20:02:45.175Z,1.20
2022-09-27T20:05:19.057Z,0.60
2022-09-27T20:07:54.119Z,0.55
2022-09-27T20:10:25.371Z,0.40
2022-09-27T20:12:56.387Z,0.70
2022-09-27T20:15:28.995Z,0.65
2022-09-27T20:18:03.057Z,0.60
2022-09-27T20:23:20.281Z,0.40
2022-09-27T20:25:51.647Z,0.40
2022-09-27T20:28:23.010Z,0.63
2022-09-27T20:31:04.528Z,0.52
2022-09-27T20:33:46.867Z,0.40
2022-09-27T20:36:22.076Z,0.40
2022-09-27T20:38:59.545Z,1.10
2022-09-27T20:41:34.068Z,0.57
2022-09-27T20:44:07.657Z,0.60
2022-09-27T20:46:39.517Z,0.70
2022-09-27T20:49:12.068Z,0.35
2022-09-27T20:51:48.571Z,0.30
2022-09-27T20:54:19.798Z,0.20
2022-09-27T20:56:52.168Z,0.32
2022-09-27T20:59:24.867Z,0.50
2022-09-27T21:01:56.197Z,0.28
2022-09-27T21:04:27.628Z,0.30
2022-09-27T21:07:03.731Z,0.38
2022-09-27T21:09:36.228Z,0.30
2022-09-27T21:12:07.207Z,0.20
2022-09-27T21:14:38.026Z,0.30
2022-09-27T21:17:11.425Z,0.30
2022-09-27T21:19:42.367Z,0.22
2022-09-27T21:22:17.602Z,0.40
2022-09-27T21:24:48.472Z,0.22
2022-09-27T21:27:19.288Z,0.15
2022-09-27T21:29:50.015Z,0.40
2022-09-27T21:32:20.742Z,0.30
2022-09-27T21:34:51.721Z,0.30
2022-09-27T21:37:25.196Z,0.30
2022-09-27T21:39:57.509Z,0.20
2022-09-27T21:42:28.225Z,0.40
2022-09-27T21:44:59.142Z,0.22
2022-09-27T21:47:29.933Z,0.20
2022-09-27T21:50:00.733Z,0.20
2022-09-27T21:52:34.181Z,0.28
2022-09-27T21:55:06.438Z,0.47
2022-09-27T21:57:37.339Z,0.20
2022-09-27T22:00:09.336Z,0.22
2022-09-27T22:02:40.105Z,0.22
2022-09-27T22:05:11.690Z,0.50
2022-09-27T22:07:45.081Z,0.20
2022-09-27T22:10:16.165Z,0.20
2022-09-27T22:12:46.904Z,0.20
2022-09-27T22:15:18.110Z,0.30
2022-09-27T22:17:49.082Z,0.40
2022-09-27T22:20:20.073Z,0.30
2022-09-27T22:22:53.477Z,0.50
2022-09-27T22:25:24.325Z,0.20
2022-09-27T22:27:55.426Z,0.30
2022-09-27T22:30:26.442Z,0.30
2022-09-27T22:32:57.234Z,0.50
2022-09-27T22:35:28.022Z,0.20
2022-09-27T22:38:01.693Z,0.35
2022-09-27T22:40:32.511Z,0.20
2022-09-27T22:43:03.210Z,0.40
2022-09-27T22:45:33.979Z,0.28
2022-09-27T22:48:05.201Z,0.35
2022-09-27T22:50:36.472Z,0.63
2022-09-27T22:53:09.929Z,0.30
2022-09-27T22:55:40.902Z,0.30
2022-09-27T22:58:11.969Z,0.30
2022-09-27T23:00:42.758Z,0.40
2022-09-27T23:03:13.569Z,0.82
2022-09-27T23:05:44.699Z,0.45
2022-09-27T23:08:18.367Z,0.40
2022-09-27T23:10:49.081Z,0.30
2022-09-27T23:13:20.163Z,0.40
2022-09-27T23:15:52.077Z,0.45
2022-09-27T23:18:22.900Z,0.52
2022-09-27T23:20:53.970Z,0.43
2022-09-27T23:23:27.851Z,0.40
2022-09-27T23:26:03.049Z,0.50
2022-09-27T23:28:35.405Z,0.60
2022-09-27T23:31:11.314Z,0.20
2022-09-27T23:33:44.580Z,0.43
2022-09-27T23:36:18.531Z,0.50
2022-09-27T23:38:52.615Z,0.50
2022-09-27T23:41:23.993Z,0.55
2022-09-27T23:43:55.054Z,0.38
2022-09-27T23:46:26.076Z,0.85
2022-09-27T23:48:59.184Z,0.88
2022-09-27T23:51:30.329Z,0.43
2022-09-27T23:54:04.670Z,0.28
2022-09-27T23:56:35.570Z,0.60
2022-09-27T23:59:06.482Z,0.20
